TNCM Airport Information

Runway Information
Runway 09 Length 7708 ft width 148 ft
Elevation 11 ft Threshold 162 ft Heading 81
Runway 27 Length 7708 ft Width 148 ft
Elevation 11 ft Threshold 394 ft Heading 261
Runway 10 Length 7152 ft width 148 ft
Elevation 12 ft Threshold 0 ft Heading 81
Runway 28 Length 7152 ft Width 148 ft
Elevation 9 ft Threshold 0 ft Heading 261
Airport Frequencies
Type APP Name JULIANA AP Frequency 128.95 MHZ
Type TWR Name JULIANA TW Frequency 118.7 MHZ
Airport Navaids
Type NDB Name St.mMarten Frequency 284 KHZ
Type VOR-DME Name St.mMarten Frequency 113000 KHZ
Airport Weather Information & NOTAM
ADDS - METARS form results

(1132 UTC 17 July 2018)
 
METAR text: TNCM 171100Z 09013KT 9999 SCT018 28/22 Q1020 A3013 NOSIG RMK LGT HZ ALQDS
Conditions at: TNCM (ST MAARTEN JULIA, VI) observed 1100 UTC 17 July 2018
Temperature: 28.0°C (82°F)
Dewpoint: 22.0°C (72°F) [RH = 70%]
Pressure (altimeter): 30.12 inches Hg (1020.0 mb)
Winds: from the E (90 degrees) at 15 MPH (13 knots; 6.8 m/s)
Visibility: 6 or more miles (10+ km)
Ceiling: at least 12,000 feet AGL
Clouds: scattered clouds at 1800 feet AGL
Weather: no significant weather observed at this time